sensor_id;sensor_type;location;lat;lon;timestamp;P1;durP1;ratioP1;P2;durP2;ratioP2
59207;SDS011;44977;53.132;6.408;2023-06-22T00:05:00;21.15;;;19.05;;
59207;SDS011;44977;53.132;6.408;2023-06-22T00:10:00;20.98;;;18.80;;
59207;SDS011;44977;53.132;6.408;2023-06-22T00:15:01;21.00;;;18.80;;
59207;SDS011;44977;53.132;6.408;2023-06-22T00:20:02;21.27;;;19.13;;
59207;SDS011;44977;53.132;6.408;2023-06-22T00:25:06;21.98;;;19.58;;
59207;SDS011;44977;53.132;6.408;2023-06-22T00:30:07;21.23;;;19.02;;
59207;SDS011;44977;53.132;6.408;2023-06-22T00:35:08;22.58;;;20.27;;
59207;SDS011;44977;53.132;6.408;2023-06-22T00:40:10;22.38;;;20.05;;
59207;SDS011;44977;53.132;6.408;2023-06-22T00:45:11;21.90;;;19.38;;
59207;SDS011;44977;53.132;6.408;2023-06-22T00:50:13;22.88;;;20.60;;
59207;SDS011;44977;53.132;6.408;2023-06-22T00:55:21;21.42;;;19.23;;
59207;SDS011;44977;53.132;6.408;2023-06-22T01:00:23;20.85;;;18.77;;
59207;SDS011;44977;53.132;6.408;2023-06-22T01:05:24;23.05;;;20.65;;
59207;SDS011;44977;53.132;6.408;2023-06-22T01:15:59;22.42;;;20.10;;
59207;SDS011;44977;53.132;6.408;2023-06-22T01:21:07;21.90;;;19.50;;
59207;SDS011;44977;53.132;6.408;2023-06-22T01:26:46;21.50;;;19.33;;
59207;SDS011;44977;53.132;6.408;2023-06-22T01:31:39;22.00;;;19.67;;
59207;SDS011;44977;53.132;6.408;2023-06-22T01:36:42;19.88;;;17.88;;
59207;SDS011;44977;53.132;6.408;2023-06-22T01:41:43;19.95;;;17.95;;
59207;SDS011;44977;53.132;6.408;2023-06-22T01:46:44;19.98;;;17.80;;
59207;SDS011;44977;53.132;6.408;2023-06-22T01:51:46;21.20;;;18.95;;
59207;SDS011;44977;53.132;6.408;2023-06-22T01:56:47;22.23;;;20.02;;
59207;SDS011;44977;53.132;6.408;2023-06-22T02:01:50;21.15;;;19.05;;
59207;SDS011;44977;53.132;6.408;2023-06-22T02:07:12;23.92;;;21.52;;
59207;SDS011;44977;53.132;6.408;2023-06-22T02:12:17;22.55;;;20.33;;
59207;SDS011;44977;53.132;6.408;2023-06-22T02:17:21;25.38;;;22.98;;
59207;SDS011;44977;53.132;6.408;2023-06-22T02:22:23;25.13;;;22.70;;
59207;SDS011;44977;53.132;6.408;2023-06-22T02:27:24;22.38;;;20.17;;
59207;SDS011;44977;53.132;6.408;2023-06-22T02:32:24;22.33;;;20.13;;
59207;SDS011;44977;53.132;6.408;2023-06-22T02:37:25;20.98;;;18.95;;
59207;SDS011;44977;53.132;6.408;2023-06-22T02:42:29;20.42;;;18.42;;
59207;SDS011;44977;53.132;6.408;2023-06-22T02:47:30;20.80;;;18.85;;
59207;SDS011;44977;53.132;6.408;2023-06-22T02:52:31;18.40;;;16.70;;
59207;SDS011;44977;53.132;6.408;2023-06-22T02:57:31;19.90;;;18.05;;
59207;SDS011;44977;53.132;6.408;2023-06-22T03:02:32;21.35;;;19.35;;
59207;SDS011;44977;53.132;6.408;2023-06-22T03:07:33;18.95;;;17.15;;
59207;SDS011;44977;53.132;6.408;2023-06-22T03:12:34;20.83;;;18.85;;
59207;SDS011;44977;53.132;6.408;2023-06-22T03:17:35;19.75;;;17.88;;
59207;SDS011;44977;53.132;6.408;2023-06-22T03:22:39;18.50;;;16.67;;
59207;SDS011;44977;53.132;6.408;2023-06-22T03:27:41;21.40;;;19.30;;
59207;SDS011;44977;53.132;6.408;2023-06-22T03:32:44;19.58;;;17.67;;
59207;SDS011;44977;53.132;6.408;2023-06-22T03:37:44;20.77;;;18.88;;
59207;SDS011;44977;53.132;6.408;2023-06-22T03:42:45;19.73;;;17.92;;
59207;SDS011;44977;53.132;6.408;2023-06-22T03:47:46;22.17;;;20.08;;
59207;SDS011;44977;53.132;6.408;2023-06-22T03:52:47;19.30;;;17.60;;
59207;SDS011;44977;53.132;6.408;2023-06-22T03:57:48;21.25;;;19.45;;
59207;SDS011;44977;53.132;6.408;2023-06-22T04:02:49;17.95;;;16.30;;
59207;SDS011;44977;53.132;6.408;2023-06-22T04:07:49;18.52;;;16.92;;
59207;SDS011;44977;53.132;6.408;2023-06-22T04:12:50;18.75;;;17.15;;
59207;SDS011;44977;53.132;6.408;2023-06-22T04:17:51;17.08;;;15.57;;
59207;SDS011;44977;53.132;6.408;2023-06-22T04:22:52;17.35;;;15.82;;
59207;SDS011;44977;53.132;6.408;2023-06-22T04:27:54;17.98;;;16.35;;
59207;SDS011;44977;53.132;6.408;2023-06-22T04:32:54;17.80;;;16.20;;
59207;SDS011;44977;53.132;6.408;2023-06-22T04:37:58;17.65;;;15.88;;
59207;SDS011;44977;53.132;6.408;2023-06-22T04:42:59;22.05;;;20.05;;
59207;SDS011;44977;53.132;6.408;2023-06-22T04:48:02;21.60;;;19.70;;
59207;SDS011;44977;53.132;6.408;2023-06-22T04:53:03;24.40;;;22.10;;
59207;SDS011;44977;53.132;6.408;2023-06-22T04:58:05;23.45;;;21.23;;
59207;SDS011;44977;53.132;6.408;2023-06-22T05:03:06;27.83;;;25.15;;
59207;SDS011;44977;53.132;6.408;2023-06-22T05:08:11;28.92;;;26.23;;
59207;SDS011;44977;53.132;6.408;2023-06-22T05:13:13;28.55;;;25.85;;
59207;SDS011;44977;53.132;6.408;2023-06-22T05:18:13;27.95;;;25.25;;
59207;SDS011;44977;53.132;6.408;2023-06-22T05:23:14;28.10;;;25.35;;
59207;SDS011;44977;53.132;6.408;2023-06-22T05:28:15;33.50;;;30.20;;
59207;SDS011;44977;53.132;6.408;2023-06-22T05:33:15;31.70;;;28.60;;
59207;SDS011;44977;53.132;6.408;2023-06-22T05:38:16;33.08;;;29.88;;
59207;SDS011;44977;53.132;6.408;2023-06-22T05:43:17;31.80;;;28.75;;
59207;SDS011;44977;53.132;6.408;2023-06-22T05:48:17;31.35;;;28.15;;
59207;SDS011;44977;53.132;6.408;2023-06-22T05:53:18;30.70;;;27.70;;
59207;SDS011;44977;53.132;6.408;2023-06-22T05:58:19;29.42;;;26.55;;
59207;SDS011;44977;53.132;6.408;2023-06-22T06:03:20;30.98;;;27.80;;
59207;SDS011;44977;53.132;6.408;2023-06-22T06:08:21;31.70;;;28.45;;
59207;SDS011;44977;53.132;6.408;2023-06-22T06:13:21;28.35;;;25.65;;
59207;SDS011;44977;53.132;6.408;2023-06-22T06:18:22;28.65;;;25.80;;
59207;SDS011;44977;53.132;6.408;2023-06-22T06:23:23;26.75;;;24.05;;
59207;SDS011;44977;53.132;6.408;2023-06-22T06:28:24;27.48;;;24.67;;
59207;SDS011;44977;53.132;6.408;2023-06-22T06:33:25;25.33;;;22.83;;
59207;SDS011;44977;53.132;6.408;2023-06-22T06:38:26;23.73;;;21.27;;
59207;SDS011;44977;53.132;6.408;2023-06-22T06:43:26;22.55;;;20.25;;
59207;SDS011;44977;53.132;6.408;2023-06-22T06:48:27;18.25;;;16.35;;
59207;SDS011;44977;53.132;6.408;2023-06-22T06:53:28;18.40;;;16.48;;
59207;SDS011;44977;53.132;6.408;2023-06-22T06:58:28;17.85;;;15.85;;
59207;SDS011;44977;53.132;6.408;2023-06-22T07:03:29;16.58;;;14.73;;
59207;SDS011;44977;53.132;6.408;2023-06-22T07:08:30;15.10;;;13.18;;
59207;SDS011;44977;53.132;6.408;2023-06-22T07:13:31;14.15;;;12.40;;
59207;SDS011;44977;53.132;6.408;2023-06-22T07:18:31;14.63;;;12.20;;
59207;SDS011;44977;53.132;6.408;2023-06-22T07:23:32;13.60;;;11.65;;
59207;SDS011;44977;53.132;6.408;2023-06-22T07:28:33;14.63;;;12.30;;
59207;SDS011;44977;53.132;6.408;2023-06-22T07:33:37;13.02;;;11.13;;
59207;SDS011;44977;53.132;6.408;2023-06-22T07:38:38;15.15;;;11.40;;
59207;SDS011;44977;53.132;6.408;2023-06-22T07:43:39;12.60;;;10.32;;
59207;SDS011;44977;53.132;6.408;2023-06-22T07:48:39;12.00;;;9.65;;
59207;SDS011;44977;53.132;6.408;2023-06-22T07:53:42;12.82;;;9.73;;
59207;SDS011;44977;53.132;6.408;2023-06-22T07:58:44;10.30;;;7.35;;
59207;SDS011;44977;53.132;6.408;2023-06-22T08:03:49;11.45;;;8.07;;
59207;SDS011;44977;53.132;6.408;2023-06-22T08:08:49;9.82;;;7.13;;
59207;SDS011;44977;53.132;6.408;2023-06-22T08:13:53;9.63;;;7.20;;
59207;SDS011;44977;53.132;6.408;2023-06-22T08:18:55;10.25;;;7.80;;
59207;SDS011;44977;53.132;6.408;2023-06-22T08:23:56;10.38;;;6.93;;
59207;SDS011;44977;53.132;6.408;2023-06-22T08:28:57;10.45;;;7.50;;
59207;SDS011;44977;53.132;6.408;2023-06-22T08:33:57;10.90;;;7.45;;
59207;SDS011;44977;53.132;6.408;2023-06-22T08:38:58;12.23;;;8.25;;
59207;SDS011;44977;53.132;6.408;2023-06-22T08:44:01;10.13;;;7.80;;
59207;SDS011;44977;53.132;6.408;2023-06-22T08:49:02;11.77;;;7.75;;
59207;SDS011;44977;53.132;6.408;2023-06-22T08:54:04;11.95;;;8.55;;
59207;SDS011;44977;53.132;6.408;2023-06-22T08:59:05;11.93;;;8.70;;
59207;SDS011;44977;53.132;6.408;2023-06-22T09:04:07;11.18;;;8.02;;
59207;SDS011;44977;53.132;6.408;2023-06-22T09:09:09;11.02;;;7.57;;
59207;SDS011;44977;53.132;6.408;2023-06-22T09:14:10;11.93;;;8.20;;
59207;SDS011;44977;53.132;6.408;2023-06-22T09:19:11;11.40;;;7.97;;
59207;SDS011;44977;53.132;6.408;2023-06-22T09:24:12;10.48;;;8.23;;
59207;SDS011;44977;53.132;6.408;2023-06-22T09:29:13;10.60;;;8.10;;
59207;SDS011;44977;53.132;6.408;2023-06-22T09:34:14;10.73;;;7.75;;
59207;SDS011;44977;53.132;6.408;2023-06-22T09:39:14;10.27;;;7.07;;
59207;SDS011;44977;53.132;6.408;2023-06-22T09:44:15;10.43;;;7.53;;
59207;SDS011;44977;53.132;6.408;2023-06-22T09:49:16;10.23;;;6.68;;
59207;SDS011;44977;53.132;6.408;2023-06-22T09:54:16;11.43;;;7.25;;
59207;SDS011;44977;53.132;6.408;2023-06-22T09:59:17;10.43;;;7.45;;
59207;SDS011;44977;53.132;6.408;2023-06-22T10:04:18;9.75;;;5.70;;
59207;SDS011;44977;53.132;6.408;2023-06-22T10:09:19;9.63;;;6.90;;
59207;SDS011;44977;53.132;6.408;2023-06-22T10:14:20;9.13;;;6.82;;
59207;SDS011;44977;53.132;6.408;2023-06-22T10:19:20;8.60;;;6.43;;
59207;SDS011;44977;53.132;6.408;2023-06-22T10:24:21;10.02;;;5.82;;
59207;SDS011;44977;53.132;6.408;2023-06-22T10:29:21;10.15;;;6.95;;
59207;SDS011;44977;53.132;6.408;2023-06-22T10:34:22;8.23;;;5.53;;
59207;SDS011;44977;53.132;6.408;2023-06-22T10:39:23;10.20;;;6.40;;
59207;SDS011;44977;53.132;6.408;2023-06-22T10:44:23;9.65;;;5.85;;
59207;SDS011;44977;53.132;6.408;2023-06-22T10:49:24;8.70;;;4.45;;
59207;SDS011;44977;53.132;6.408;2023-06-22T10:54:25;8.25;;;5.78;;
59207;SDS011;44977;53.132;6.408;2023-06-22T10:59:25;7.28;;;4.28;;
59207;SDS011;44977;53.132;6.408;2023-06-22T11:04:27;8.60;;;5.55;;
59207;SDS011;44977;53.132;6.408;2023-06-22T11:09:27;9.63;;;5.70;;
59207;SDS011;44977;53.132;6.408;2023-06-22T11:14:28;8.88;;;5.82;;
59207;SDS011;44977;53.132;6.408;2023-06-22T11:19:29;8.77;;;5.35;;
59207;SDS011;44977;53.132;6.408;2023-06-22T11:24:29;8.95;;;5.95;;
59207;SDS011;44977;53.132;6.408;2023-06-22T11:29:30;9.25;;;6.07;;
59207;SDS011;44977;53.132;6.408;2023-06-22T11:34:31;9.65;;;6.32;;
59207;SDS011;44977;53.132;6.408;2023-06-22T11:39:31;9.73;;;5.88;;
59207;SDS011;44977;53.132;6.408;2023-06-22T11:44:32;9.70;;;5.65;;
59207;SDS011;44977;53.132;6.408;2023-06-22T11:49:33;9.80;;;5.78;;
59207;SDS011;44977;53.132;6.408;2023-06-22T11:54:34;8.30;;;5.45;;
59207;SDS011;44977;53.132;6.408;2023-06-22T11:59:34;8.80;;;5.00;;
59207;SDS011;44977;53.132;6.408;2023-06-22T12:04:35;9.07;;;5.78;;
59207;SDS011;44977;53.132;6.408;2023-06-22T12:09:36;8.27;;;4.80;;
59207;SDS011;44977;53.132;6.408;2023-06-22T12:14:37;8.38;;;5.05;;
59207;SDS011;44977;53.132;6.408;2023-06-22T12:19:38;8.27;;;5.53;;
59207;SDS011;44977;53.132;6.408;2023-06-22T12:24:38;8.95;;;5.47;;
59207;SDS011;44977;53.132;6.408;2023-06-22T12:29:39;8.85;;;5.70;;
59207;SDS011;44977;53.132;6.408;2023-06-22T12:34:41;11.20;;;6.40;;
59207;SDS011;44977;53.132;6.408;2023-06-22T12:39:43;8.98;;;6.13;;
59207;SDS011;44977;53.132;6.408;2023-06-22T12:44:45;8.85;;;6.18;;
59207;SDS011;44977;53.132;6.408;2023-06-22T12:49:45;8.18;;;6.32;;
59207;SDS011;44977;53.132;6.408;2023-06-22T12:54:46;9.90;;;6.97;;
59207;SDS011;44977;53.132;6.408;2023-06-22T12:59:46;8.38;;;5.53;;
59207;SDS011;44977;53.132;6.408;2023-06-22T13:04:47;12.45;;;7.60;;
59207;SDS011;44977;53.132;6.408;2023-06-22T13:09:48;12.35;;;6.35;;
59207;SDS011;44977;53.132;6.408;2023-06-22T13:14:51;9.25;;;4.70;;
59207;SDS011;44977;53.132;6.408;2023-06-22T13:19:52;9.43;;;5.53;;
59207;SDS011;44977;53.132;6.408;2023-06-22T13:24:52;8.60;;;5.05;;
59207;SDS011;44977;53.132;6.408;2023-06-22T13:29:53;8.95;;;4.65;;
59207;SDS011;44977;53.132;6.408;2023-06-22T13:34:54;8.10;;;4.95;;
59207;SDS011;44977;53.132;6.408;2023-06-22T13:39:55;9.68;;;6.03;;
59207;SDS011;44977;53.132;6.408;2023-06-22T13:44:56;8.88;;;5.50;;
59207;SDS011;44977;53.132;6.408;2023-06-22T13:49:56;9.13;;;4.95;;
59207;SDS011;44977;53.132;6.408;2023-06-22T13:54:57;8.00;;;4.60;;
59207;SDS011;44977;53.132;6.408;2023-06-22T13:59:58;8.05;;;3.97;;
59207;SDS011;44977;53.132;6.408;2023-06-22T14:04:59;8.07;;;4.55;;
59207;SDS011;44977;53.132;6.408;2023-06-22T14:10:00;8.05;;;4.28;;
59207;SDS011;44977;53.132;6.408;2023-06-22T14:15:01;7.65;;;3.67;;
59207;SDS011;44977;53.132;6.408;2023-06-22T14:20:02;7.22;;;3.03;;
59207;SDS011;44977;53.132;6.408;2023-06-22T14:25:04;5.55;;;3.00;;
59207;SDS011;44977;53.132;6.408;2023-06-22T14:30:05;6.03;;;3.20;;
59207;SDS011;44977;53.132;6.408;2023-06-22T14:35:07;8.90;;;3.88;;
59207;SDS011;44977;53.132;6.408;2023-06-22T14:40:07;6.97;;;2.83;;
59207;SDS011;44977;53.132;6.408;2023-06-22T14:45:08;6.03;;;2.83;;
59207;SDS011;44977;53.132;6.408;2023-06-22T14:50:09;5.70;;;2.20;;
59207;SDS011;44977;53.132;6.408;2023-06-22T14:55:10;6.57;;;2.25;;
59207;SDS011;44977;53.132;6.408;2023-06-22T15:00:11;5.80;;;2.30;;
59207;SDS011;44977;53.132;6.408;2023-06-22T15:05:12;5.13;;;2.10;;
59207;SDS011;44977;53.132;6.408;2023-06-22T15:10:12;7.38;;;2.28;;
59207;SDS011;44977;53.132;6.408;2023-06-22T15:15:13;5.40;;;2.08;;
59207;SDS011;44977;53.132;6.408;2023-06-22T15:20:14;5.60;;;2.38;;
59207;SDS011;44977;53.132;6.408;2023-06-22T15:25:15;5.65;;;2.20;;
59207;SDS011;44977;53.132;6.408;2023-06-22T15:30:15;6.25;;;2.00;;
59207;SDS011;44977;53.132;6.408;2023-06-22T15:35:16;4.95;;;2.17;;
59207;SDS011;44977;53.132;6.408;2023-06-22T15:40:18;5.10;;;2.17;;
59207;SDS011;44977;53.132;6.408;2023-06-22T15:45:19;5.50;;;2.05;;
59207;SDS011;44977;53.132;6.408;2023-06-22T15:50:20;6.70;;;2.20;;
59207;SDS011;44977;53.132;6.408;2023-06-22T15:55:21;5.50;;;1.90;;
59207;SDS011;44977;53.132;6.408;2023-06-22T16:00:21;4.65;;;2.03;;
59207;SDS011;44977;53.132;6.408;2023-06-22T16:05:22;5.07;;;1.50;;
59207;SDS011;44977;53.132;6.408;2023-06-22T16:10:23;3.30;;;1.60;;
59207;SDS011;44977;53.132;6.408;2023-06-22T16:15:24;5.25;;;1.70;;
59207;SDS011;44977;53.132;6.408;2023-06-22T16:20:24;7.97;;;3.25;;
59207;SDS011;44977;53.132;6.408;2023-06-22T16:25:25;4.05;;;1.63;;
59207;SDS011;44977;53.132;6.408;2023-06-22T16:30:26;5.47;;;2.22;;
59207;SDS011;44977;53.132;6.408;2023-06-22T16:35:27;5.53;;;2.38;;
59207;SDS011;44977;53.132;6.408;2023-06-22T16:40:29;4.80;;;2.00;;
59207;SDS011;44977;53.132;6.408;2023-06-22T16:45:29;5.72;;;1.92;;
59207;SDS011;44977;53.132;6.408;2023-06-22T16:50:32;6.65;;;1.80;;
59207;SDS011;44977;53.132;6.408;2023-06-22T16:55:33;5.28;;;2.10;;
59207;SDS011;44977;53.132;6.408;2023-06-22T17:00:36;5.80;;;2.20;;
59207;SDS011;44977;53.132;6.408;2023-06-22T17:05:37;4.68;;;2.30;;
59207;SDS011;44977;53.132;6.408;2023-06-22T17:10:39;6.22;;;2.60;;
59207;SDS011;44977;53.132;6.408;2023-06-22T17:15:41;6.18;;;2.80;;
59207;SDS011;44977;53.132;6.408;2023-06-22T17:20:43;5.95;;;2.90;;
59207;SDS011;44977;53.132;6.408;2023-06-22T17:25:44;6.70;;;3.35;;
59207;SDS011;44977;53.132;6.408;2023-06-22T17:30:47;7.18;;;3.85;;
59207;SDS011;44977;53.132;6.408;2023-06-22T17:36:13;11.00;;;3.92;;
59207;SDS011;44977;53.132;6.408;2023-06-22T17:41:14;7.57;;;4.10;;
59207;SDS011;44977;53.132;6.408;2023-06-22T17:46:14;7.88;;;4.03;;
59207;SDS011;44977;53.132;6.408;2023-06-22T17:51:16;7.55;;;4.07;;
59207;SDS011;44977;53.132;6.408;2023-06-22T17:56:18;6.70;;;3.85;;
59207;SDS011;44977;53.132;6.408;2023-06-22T18:01:31;7.28;;;3.58;;
59207;SDS011;44977;53.132;6.408;2023-06-22T18:06:38;7.90;;;3.30;;
59207;SDS011;44977;53.132;6.408;2023-06-22T18:11:43;6.60;;;3.33;;
59207;SDS011;44977;53.132;6.408;2023-06-22T18:16:46;7.65;;;3.78;;
59207;SDS011;44977;53.132;6.408;2023-06-22T18:21:48;7.13;;;3.17;;
59207;SDS011;44977;53.132;6.408;2023-06-22T18:26:49;7.45;;;3.10;;
59207;SDS011;44977;53.132;6.408;2023-06-22T18:31:51;7.90;;;3.70;;
59207;SDS011;44977;53.132;6.408;2023-06-22T18:36:52;7.15;;;3.30;;
59207;SDS011;44977;53.132;6.408;2023-06-22T18:41:55;6.22;;;3.67;;
59207;SDS011;44977;53.132;6.408;2023-06-22T18:46:58;11.57;;;3.90;;
59207;SDS011;44977;53.132;6.408;2023-06-22T18:52:04;6.30;;;3.17;;
59207;SDS011;44977;53.132;6.408;2023-06-22T18:57:25;9.70;;;3.90;;
59207;SDS011;44977;53.132;6.408;2023-06-22T19:08:09;6.90;;;3.35;;
59207;SDS011;44977;53.132;6.408;2023-06-22T19:18:36;8.40;;;4.75;;
59207;SDS011;44977;53.132;6.408;2023-06-22T19:23:42;8.60;;;4.47;;
59207;SDS011;44977;53.132;6.408;2023-06-22T19:28:44;8.95;;;4.93;;
59207;SDS011;44977;53.132;6.408;2023-06-22T19:33:46;9.77;;;4.60;;
59207;SDS011;44977;53.132;6.408;2023-06-22T19:38:47;7.53;;;4.70;;
59207;SDS011;44977;53.132;6.408;2023-06-22T19:43:49;9.00;;;4.32;;
59207;SDS011;44977;53.132;6.408;2023-06-22T19:48:50;8.45;;;4.75;;
59207;SDS011;44977;53.132;6.408;2023-06-22T19:53:51;9.88;;;4.05;;
59207;SDS011;44977;53.132;6.408;2023-06-22T19:58:52;7.65;;;3.80;;
59207;SDS011;44977;53.132;6.408;2023-06-22T20:03:55;7.78;;;3.97;;
59207;SDS011;44977;53.132;6.408;2023-06-22T20:08:55;8.77;;;4.22;;
59207;SDS011;44977;53.132;6.408;2023-06-22T20:13:58;7.72;;;3.97;;
59207;SDS011;44977;53.132;6.408;2023-06-22T20:19:06;8.00;;;3.80;;
59207;SDS011;44977;53.132;6.408;2023-06-22T20:24:09;7.72;;;3.90;;
59207;SDS011;44977;53.132;6.408;2023-06-22T20:29:27;7.47;;;3.60;;
59207;SDS011;44977;53.132;6.408;2023-06-22T20:39:37;7.75;;;4.00;;
59207;SDS011;44977;53.132;6.408;2023-06-22T20:44:39;6.72;;;3.35;;
59207;SDS011;44977;53.132;6.408;2023-06-22T20:49:39;8.07;;;3.50;;
59207;SDS011;44977;53.132;6.408;2023-06-22T20:54:40;7.47;;;3.67;;
59207;SDS011;44977;53.132;6.408;2023-06-22T20:59:41;7.75;;;3.65;;
59207;SDS011;44977;53.132;6.408;2023-06-22T21:04:41;7.93;;;3.42;;
59207;SDS011;44977;53.132;6.408;2023-06-22T21:09:42;7.38;;;3.70;;
59207;SDS011;44977;53.132;6.408;2023-06-22T21:14:43;7.90;;;3.65;;
59207;SDS011;44977;53.132;6.408;2023-06-22T21:19:44;6.88;;;3.35;;
59207;SDS011;44977;53.132;6.408;2023-06-22T21:24:45;7.93;;;3.70;;
59207;SDS011;44977;53.132;6.408;2023-06-22T21:30:01;8.00;;;3.47;;
59207;SDS011;44977;53.132;6.408;2023-06-22T21:35:04;8.13;;;3.97;;
59207;SDS011;44977;53.132;6.408;2023-06-22T21:40:05;10.13;;;4.00;;
59207;SDS011;44977;53.132;6.408;2023-06-22T21:45:07;8.38;;;4.03;;
59207;SDS011;44977;53.132;6.408;2023-06-22T21:50:09;8.75;;;4.13;;
59207;SDS011;44977;53.132;6.408;2023-06-22T21:55:10;7.38;;;3.97;;
59207;SDS011;44977;53.132;6.408;2023-06-22T22:00:10;7.57;;;4.22;;
59207;SDS011;44977;53.132;6.408;2023-06-22T22:05:11;7.90;;;4.20;;
59207;SDS011;44977;53.132;6.408;2023-06-22T22:10:12;7.72;;;4.38;;
59207;SDS011;44977;53.132;6.408;2023-06-22T22:15:14;10.43;;;5.00;;
59207;SDS011;44977;53.132;6.408;2023-06-22T22:20:14;7.75;;;4.90;;
59207;SDS011;44977;53.132;6.408;2023-06-22T22:25:15;8.57;;;5.30;;
59207;SDS011;44977;53.132;6.408;2023-06-22T22:30:16;9.38;;;5.50;;
59207;SDS011;44977;53.132;6.408;2023-06-22T22:35:17;9.57;;;5.80;;
59207;SDS011;44977;53.132;6.408;2023-06-22T22:40:18;8.48;;;5.90;;
59207;SDS011;44977;53.132;6.408;2023-06-22T22:45:19;8.85;;;5.60;;
59207;SDS011;44977;53.132;6.408;2023-06-22T22:50:20;10.35;;;6.00;;
59207;SDS011;44977;53.132;6.408;2023-06-22T22:55:21;9.50;;;5.97;;
59207;SDS011;44977;53.132;6.408;2023-06-22T23:00:22;10.20;;;6.38;;
59207;SDS011;44977;53.132;6.408;2023-06-22T23:05:23;10.65;;;6.82;;
59207;SDS011;44977;53.132;6.408;2023-06-22T23:10:24;10.48;;;6.70;;
59207;SDS011;44977;53.132;6.408;2023-06-22T23:15:24;12.15;;;8.30;;
59207;SDS011;44977;53.132;6.408;2023-06-22T23:20:25;11.00;;;8.02;;
59207;SDS011;44977;53.132;6.408;2023-06-22T23:25:26;14.80;;;7.57;;
59207;SDS011;44977;53.132;6.408;2023-06-22T23:30:29;10.70;;;7.88;;
59207;SDS011;44977;53.132;6.408;2023-06-22T23:35:31;12.15;;;8.95;;
59207;SDS011;44977;53.132;6.408;2023-06-22T23:40:32;13.65;;;9.43;;
59207;SDS011;44977;53.132;6.408;2023-06-22T23:45:32;12.23;;;9.65;;
59207;SDS011;44977;53.132;6.408;2023-06-22T23:50:33;12.02;;;9.02;;
59207;SDS011;44977;53.132;6.408;2023-06-22T23:55:34;12.27;;;8.82;;
